sensor_id;sensor_type;location;lat;lon;timestamp;P1;durP1;ratioP1;P2;durP2;ratioP2
73599;SDS011;61877;48.246;9.220;2023-06-19T00:02:10;15.63;;;9.67;;
73599;SDS011;61877;48.246;9.220;2023-06-19T00:04:35;14.25;;;9.30;;
73599;SDS011;61877;48.246;9.220;2023-06-19T00:07:01;14.67;;;9.53;;
73599;SDS011;61877;48.246;9.220;2023-06-19T00:09:27;14.52;;;9.38;;
73599;SDS011;61877;48.246;9.220;2023-06-19T00:11:52;14.60;;;9.25;;
73599;SDS011;61877;48.246;9.220;2023-06-19T00:14:18;14.80;;;9.67;;
73599;SDS011;61877;48.246;9.220;2023-06-19T00:16:44;16.30;;;9.10;;
73599;SDS011;61877;48.246;9.220;2023-06-19T00:19:11;14.27;;;8.90;;
73599;SDS011;61877;48.246;9.220;2023-06-19T00:21:37;14.25;;;9.60;;
73599;SDS011;61877;48.246;9.220;2023-06-19T00:24:03;15.25;;;9.27;;
73599;SDS011;61877;48.246;9.220;2023-06-19T00:26:28;15.67;;;9.47;;
73599;SDS011;61877;48.246;9.220;2023-06-19T00:28:54;13.88;;;9.15;;
73599;SDS011;61877;48.246;9.220;2023-06-19T00:31:20;15.57;;;9.40;;
73599;SDS011;61877;48.246;9.220;2023-06-19T00:33:45;14.27;;;8.80;;
73599;SDS011;61877;48.246;9.220;2023-06-19T00:36:14;13.93;;;9.07;;
73599;SDS011;61877;48.246;9.220;2023-06-19T00:38:42;14.50;;;9.18;;
73599;SDS011;61877;48.246;9.220;2023-06-19T00:41:07;14.80;;;10.10;;
73599;SDS011;61877;48.246;9.220;2023-06-19T00:43:33;14.67;;;9.80;;
73599;SDS011;61877;48.246;9.220;2023-06-19T00:45:59;14.60;;;9.80;;
73599;SDS011;61877;48.246;9.220;2023-06-19T00:48:26;18.42;;;9.80;;
73599;SDS011;61877;48.246;9.220;2023-06-19T00:50:53;17.25;;;9.77;;
73599;SDS011;61877;48.246;9.220;2023-06-19T00:53:21;14.27;;;8.70;;
73599;SDS011;61877;48.246;9.220;2023-06-19T00:55:47;14.88;;;9.23;;
73599;SDS011;61877;48.246;9.220;2023-06-19T00:58:18;14.52;;;9.32;;
73599;SDS011;61877;48.246;9.220;2023-06-19T01:00:44;13.63;;;8.88;;
73599;SDS011;61877;48.246;9.220;2023-06-19T01:03:13;15.73;;;9.80;;
73599;SDS011;61877;48.246;9.220;2023-06-19T01:05:38;14.43;;;9.23;;
73599;SDS011;61877;48.246;9.220;2023-06-19T01:08:04;14.77;;;9.33;;
73599;SDS011;61877;48.246;9.220;2023-06-19T01:10:38;15.95;;;9.80;;
73599;SDS011;61877;48.246;9.220;2023-06-19T01:13:08;16.42;;;9.48;;
73599;SDS011;61877;48.246;9.220;2023-06-19T01:15:37;14.25;;;9.40;;
73599;SDS011;61877;48.246;9.220;2023-06-19T01:18:04;15.43;;;9.60;;
73599;SDS011;61877;48.246;9.220;2023-06-19T01:20:31;14.63;;;9.17;;
73599;SDS011;61877;48.246;9.220;2023-06-19T01:23:00;14.50;;;9.57;;
73599;SDS011;61877;48.246;9.220;2023-06-19T01:25:31;14.88;;;9.55;;
73599;SDS011;61877;48.246;9.220;2023-06-19T01:27:56;14.83;;;9.47;;
73599;SDS011;61877;48.246;9.220;2023-06-19T01:30:22;15.30;;;9.50;;
73599;SDS011;61877;48.246;9.220;2023-06-19T01:32:49;16.00;;;9.53;;
73599;SDS011;61877;48.246;9.220;2023-06-19T01:35:19;16.20;;;9.85;;
73599;SDS011;61877;48.246;9.220;2023-06-19T01:37:47;14.93;;;9.05;;
73599;SDS011;61877;48.246;9.220;2023-06-19T01:40:15;14.82;;;9.85;;
73599;SDS011;61877;48.246;9.220;2023-06-19T01:42:42;15.00;;;9.45;;
73599;SDS011;61877;48.246;9.220;2023-06-19T01:45:08;14.80;;;9.20;;
73599;SDS011;61877;48.246;9.220;2023-06-19T01:47:37;14.80;;;9.18;;
73599;SDS011;61877;48.246;9.220;2023-06-19T01:50:02;14.32;;;9.07;;
73599;SDS011;61877;48.246;9.220;2023-06-19T01:52:28;14.67;;;9.30;;
73599;SDS011;61877;48.246;9.220;2023-06-19T01:54:54;15.27;;;9.73;;
73599;SDS011;61877;48.246;9.220;2023-06-19T01:57:21;15.03;;;10.00;;
73599;SDS011;61877;48.246;9.220;2023-06-19T01:59:46;13.32;;;8.98;;
73599;SDS011;61877;48.246;9.220;2023-06-19T02:02:12;14.90;;;8.70;;
73599;SDS011;61877;48.246;9.220;2023-06-19T02:04:37;14.63;;;10.15;;
73599;SDS011;61877;48.246;9.220;2023-06-19T02:07:03;13.90;;;8.73;;
73599;SDS011;61877;48.246;9.220;2023-06-19T02:09:29;14.63;;;9.55;;
73599;SDS011;61877;48.246;9.220;2023-06-19T02:11:54;14.03;;;9.17;;
73599;SDS011;61877;48.246;9.220;2023-06-19T02:14:22;15.20;;;9.48;;
73599;SDS011;61877;48.246;9.220;2023-06-19T02:16:48;14.80;;;9.10;;
73599;SDS011;61877;48.246;9.220;2023-06-19T02:19:13;16.00;;;9.57;;
73599;SDS011;61877;48.246;9.220;2023-06-19T02:21:39;15.37;;;9.67;;
73599;SDS011;61877;48.246;9.220;2023-06-19T02:24:05;15.17;;;9.03;;
73599;SDS011;61877;48.246;9.220;2023-06-19T02:26:30;14.68;;;9.10;;
73599;SDS011;61877;48.246;9.220;2023-06-19T02:28:56;17.25;;;9.07;;
73599;SDS011;61877;48.246;9.220;2023-06-19T02:31:23;14.63;;;9.07;;
73599;SDS011;61877;48.246;9.220;2023-06-19T02:33:49;14.15;;;8.98;;
73599;SDS011;61877;48.246;9.220;2023-06-19T02:36:14;14.37;;;9.47;;
73599;SDS011;61877;48.246;9.220;2023-06-19T02:38:40;16.23;;;9.45;;
73599;SDS011;61877;48.246;9.220;2023-06-19T02:41:07;14.93;;;9.10;;
73599;SDS011;61877;48.246;9.220;2023-06-19T02:43:32;14.23;;;8.87;;
73599;SDS011;61877;48.246;9.220;2023-06-19T02:45:58;14.57;;;9.17;;
73599;SDS011;61877;48.246;9.220;2023-06-19T02:48:25;16.63;;;9.90;;
73599;SDS011;61877;48.246;9.220;2023-06-19T02:50:51;14.60;;;9.10;;
73599;SDS011;61877;48.246;9.220;2023-06-19T02:53:16;14.35;;;9.32;;
73599;SDS011;61877;48.246;9.220;2023-06-19T02:55:42;14.63;;;8.90;;
73599;SDS011;61877;48.246;9.220;2023-06-19T02:58:07;15.60;;;9.23;;
73599;SDS011;61877;48.246;9.220;2023-06-19T03:00:33;14.95;;;8.88;;
73599;SDS011;61877;48.246;9.220;2023-06-19T03:02:58;13.97;;;9.03;;
73599;SDS011;61877;48.246;9.220;2023-06-19T03:05:25;15.03;;;9.23;;
73599;SDS011;61877;48.246;9.220;2023-06-19T03:07:51;15.20;;;9.00;;
73599;SDS011;61877;48.246;9.220;2023-06-19T03:10:16;14.85;;;8.95;;
73599;SDS011;61877;48.246;9.220;2023-06-19T03:12:42;14.57;;;9.10;;
73599;SDS011;61877;48.246;9.220;2023-06-19T03:15:08;14.77;;;9.23;;
73599;SDS011;61877;48.246;9.220;2023-06-19T03:17:34;15.38;;;9.23;;
73599;SDS011;61877;48.246;9.220;2023-06-19T03:19:59;13.98;;;9.10;;
73599;SDS011;61877;48.246;9.220;2023-06-19T03:22:26;15.87;;;8.80;;
73599;SDS011;61877;48.246;9.220;2023-06-19T03:24:52;14.07;;;8.95;;
73599;SDS011;61877;48.246;9.220;2023-06-19T03:27:17;16.07;;;9.30;;
73599;SDS011;61877;48.246;9.220;2023-06-19T03:29:43;14.53;;;9.17;;
73599;SDS011;61877;48.246;9.220;2023-06-19T03:32:08;14.80;;;9.27;;
73599;SDS011;61877;48.246;9.220;2023-06-19T03:34:34;13.87;;;9.20;;
73599;SDS011;61877;48.246;9.220;2023-06-19T03:37:00;15.93;;;9.30;;
73599;SDS011;61877;48.246;9.220;2023-06-19T03:39:27;14.00;;;9.37;;
73599;SDS011;61877;48.246;9.220;2023-06-19T03:41:52;13.90;;;9.07;;
73599;SDS011;61877;48.246;9.220;2023-06-19T03:44:18;15.50;;;9.47;;
73599;SDS011;61877;48.246;9.220;2023-06-19T03:46:44;14.35;;;8.73;;
73599;SDS011;61877;48.246;9.220;2023-06-19T03:49:11;15.03;;;9.10;;
73599;SDS011;61877;48.246;9.220;2023-06-19T03:51:37;13.68;;;8.65;;
73599;SDS011;61877;48.246;9.220;2023-06-19T03:54:03;15.37;;;8.07;;
73599;SDS011;61877;48.246;9.220;2023-06-19T03:56:30;14.20;;;8.65;;
73599;SDS011;61877;48.246;9.220;2023-06-19T03:58:55;13.20;;;8.55;;
73599;SDS011;61877;48.246;9.220;2023-06-19T04:01:21;14.83;;;8.87;;
73599;SDS011;61877;48.246;9.220;2023-06-19T04:03:49;14.88;;;9.57;;
73599;SDS011;61877;48.246;9.220;2023-06-19T04:06:18;16.17;;;9.30;;
73599;SDS011;61877;48.246;9.220;2023-06-19T04:08:43;15.02;;;8.93;;
73599;SDS011;61877;48.246;9.220;2023-06-19T04:11:09;15.23;;;9.23;;
73599;SDS011;61877;48.246;9.220;2023-06-19T04:13:36;14.30;;;8.55;;
73599;SDS011;61877;48.246;9.220;2023-06-19T04:16:01;16.02;;;8.45;;
73599;SDS011;61877;48.246;9.220;2023-06-19T04:18:30;14.90;;;8.50;;
73599;SDS011;61877;48.246;9.220;2023-06-19T04:20:55;15.23;;;8.68;;
73599;SDS011;61877;48.246;9.220;2023-06-19T04:23:21;13.17;;;7.93;;
73599;SDS011;61877;48.246;9.220;2023-06-19T04:25:49;16.40;;;7.90;;
73599;SDS011;61877;48.246;9.220;2023-06-19T04:28:15;13.35;;;8.07;;
73599;SDS011;61877;48.246;9.220;2023-06-19T04:30:48;11.67;;;7.50;;
73599;SDS011;61877;48.246;9.220;2023-06-19T04:33:14;13.38;;;8.20;;
73599;SDS011;61877;48.246;9.220;2023-06-19T04:35:40;13.83;;;8.47;;
73599;SDS011;61877;48.246;9.220;2023-06-19T04:38:09;13.50;;;8.55;;
73599;SDS011;61877;48.246;9.220;2023-06-19T04:40:41;14.88;;;8.85;;
73599;SDS011;61877;48.246;9.220;2023-06-19T04:43:16;15.43;;;8.77;;
73599;SDS011;61877;48.246;9.220;2023-06-19T04:45:46;15.02;;;7.90;;
73599;SDS011;61877;48.246;9.220;2023-06-19T04:48:19;13.02;;;8.15;;
73599;SDS011;61877;48.246;9.220;2023-06-19T04:50:51;13.18;;;8.45;;
73599;SDS011;61877;48.246;9.220;2023-06-19T04:53:18;12.30;;;7.70;;
73599;SDS011;61877;48.246;9.220;2023-06-19T04:55:44;13.98;;;8.63;;
73599;SDS011;61877;48.246;9.220;2023-06-19T04:58:11;12.80;;;8.48;;
73599;SDS011;61877;48.246;9.220;2023-06-19T05:00:45;14.07;;;8.90;;
73599;SDS011;61877;48.246;9.220;2023-06-19T05:03:11;13.75;;;9.02;;
73599;SDS011;61877;48.246;9.220;2023-06-19T05:05:39;14.18;;;8.60;;
73599;SDS011;61877;48.246;9.220;2023-06-19T05:08:05;13.13;;;8.60;;
73599;SDS011;61877;48.246;9.220;2023-06-19T05:10:34;13.80;;;8.07;;
73599;SDS011;61877;48.246;9.220;2023-06-19T05:13:00;13.43;;;8.02;;
73599;SDS011;61877;48.246;9.220;2023-06-19T05:15:26;12.63;;;8.05;;
73599;SDS011;61877;48.246;9.220;2023-06-19T05:17:53;14.93;;;8.15;;
73599;SDS011;61877;48.246;9.220;2023-06-19T05:20:21;13.35;;;7.47;;
73599;SDS011;61877;48.246;9.220;2023-06-19T05:22:47;11.60;;;7.30;;
73599;SDS011;61877;48.246;9.220;2023-06-19T05:25:12;11.33;;;6.77;;
73599;SDS011;61877;48.246;9.220;2023-06-19T05:27:38;12.00;;;6.88;;
73599;SDS011;61877;48.246;9.220;2023-06-19T05:30:04;11.07;;;7.07;;
73599;SDS011;61877;48.246;9.220;2023-06-19T05:32:31;13.50;;;6.85;;
73599;SDS011;61877;48.246;9.220;2023-06-19T05:34:58;11.40;;;7.00;;
73599;SDS011;61877;48.246;9.220;2023-06-19T05:37:23;12.77;;;7.15;;
73599;SDS011;61877;48.246;9.220;2023-06-19T05:39:49;12.90;;;7.80;;
73599;SDS011;61877;48.246;9.220;2023-06-19T05:42:14;12.23;;;7.60;;
73599;SDS011;61877;48.246;9.220;2023-06-19T05:44:40;11.97;;;7.67;;
73599;SDS011;61877;48.246;9.220;2023-06-19T05:47:05;12.70;;;7.70;;
73599;SDS011;61877;48.246;9.220;2023-06-19T05:49:31;12.25;;;7.57;;
73599;SDS011;61877;48.246;9.220;2023-06-19T05:51:59;10.97;;;6.27;;
73599;SDS011;61877;48.246;9.220;2023-06-19T05:54:25;11.52;;;7.00;;
73599;SDS011;61877;48.246;9.220;2023-06-19T05:56:50;9.38;;;5.25;;
73599;SDS011;61877;48.246;9.220;2023-06-19T05:59:16;9.70;;;5.10;;
73599;SDS011;61877;48.246;9.220;2023-06-19T06:01:41;7.93;;;4.27;;
73599;SDS011;61877;48.246;9.220;2023-06-19T06:04:07;9.23;;;4.45;;
73599;SDS011;61877;48.246;9.220;2023-06-19T06:06:32;8.90;;;4.20;;
73599;SDS011;61877;48.246;9.220;2023-06-19T06:09:00;8.70;;;4.50;;
73599;SDS011;61877;48.246;9.220;2023-06-19T06:11:26;10.07;;;4.50;;
73599;SDS011;61877;48.246;9.220;2023-06-19T06:13:52;9.05;;;4.07;;
73599;SDS011;61877;48.246;9.220;2023-06-19T06:16:17;8.60;;;4.00;;
73599;SDS011;61877;48.246;9.220;2023-06-19T06:18:44;10.45;;;3.92;;
73599;SDS011;61877;48.246;9.220;2023-06-19T06:21:09;7.80;;;4.00;;
73599;SDS011;61877;48.246;9.220;2023-06-19T06:23:35;9.47;;;3.70;;
73599;SDS011;61877;48.246;9.220;2023-06-19T06:26:05;8.97;;;3.70;;
73599;SDS011;61877;48.246;9.220;2023-06-19T06:28:30;7.82;;;3.80;;
73599;SDS011;61877;48.246;9.220;2023-06-19T06:30:56;8.07;;;3.73;;
73599;SDS011;61877;48.246;9.220;2023-06-19T06:33:22;9.60;;;4.00;;
73599;SDS011;61877;48.246;9.220;2023-06-19T06:35:47;9.13;;;4.27;;
73599;SDS011;61877;48.246;9.220;2023-06-19T06:38:12;8.18;;;4.10;;
73599;SDS011;61877;48.246;9.220;2023-06-19T06:40:39;10.13;;;3.80;;
73599;SDS011;61877;48.246;9.220;2023-06-19T06:43:06;8.35;;;4.20;;
73599;SDS011;61877;48.246;9.220;2023-06-19T06:45:31;8.03;;;4.13;;
73599;SDS011;61877;48.246;9.220;2023-06-19T06:47:57;8.85;;;3.55;;
73599;SDS011;61877;48.246;9.220;2023-06-19T06:50:22;7.40;;;3.80;;
73599;SDS011;61877;48.246;9.220;2023-06-19T06:52:48;8.67;;;4.20;;
73599;SDS011;61877;48.246;9.220;2023-06-19T06:55:15;9.98;;;4.25;;
73599;SDS011;61877;48.246;9.220;2023-06-19T06:57:40;9.40;;;4.00;;
73599;SDS011;61877;48.246;9.220;2023-06-19T07:00:09;9.90;;;4.47;;
73599;SDS011;61877;48.246;9.220;2023-06-19T07:02:37;8.23;;;4.33;;
73599;SDS011;61877;48.246;9.220;2023-06-19T07:05:02;9.13;;;4.35;;
73599;SDS011;61877;48.246;9.220;2023-06-19T07:07:28;8.80;;;4.68;;
73599;SDS011;61877;48.246;9.220;2023-06-19T07:09:53;9.23;;;4.50;;
73599;SDS011;61877;48.246;9.220;2023-06-19T07:12:19;10.63;;;4.80;;
73599;SDS011;61877;48.246;9.220;2023-06-19T07:14:44;8.93;;;4.75;;
73599;SDS011;61877;48.246;9.220;2023-06-19T07:17:11;8.83;;;4.70;;
73599;SDS011;61877;48.246;9.220;2023-06-19T07:19:37;9.50;;;5.40;;
73599;SDS011;61877;48.246;9.220;2023-06-19T07:22:02;9.73;;;5.23;;
73599;SDS011;61877;48.246;9.220;2023-06-19T07:24:31;9.57;;;5.28;;
73599;SDS011;61877;48.246;9.220;2023-06-19T07:26:56;11.23;;;5.20;;
73599;SDS011;61877;48.246;9.220;2023-06-19T07:29:21;12.63;;;5.83;;
73599;SDS011;61877;48.246;9.220;2023-06-19T07:31:47;9.93;;;6.00;;
73599;SDS011;61877;48.246;9.220;2023-06-19T07:34:14;9.77;;;5.88;;
73599;SDS011;61877;48.246;9.220;2023-06-19T07:36:39;10.18;;;6.03;;
73599;SDS011;61877;48.246;9.220;2023-06-19T07:39:05;12.17;;;6.10;;
73599;SDS011;61877;48.246;9.220;2023-06-19T07:41:31;11.57;;;6.27;;
73599;SDS011;61877;48.246;9.220;2023-06-19T07:43:57;12.32;;;5.90;;
73599;SDS011;61877;48.246;9.220;2023-06-19T07:46:25;10.32;;;6.20;;
73599;SDS011;61877;48.246;9.220;2023-06-19T07:48:50;11.57;;;6.50;;
73599;SDS011;61877;48.246;9.220;2023-06-19T07:51:17;10.07;;;6.10;;
73599;SDS011;61877;48.246;9.220;2023-06-19T07:53:42;10.60;;;5.97;;
73599;SDS011;61877;48.246;9.220;2023-06-19T07:56:08;10.75;;;6.30;;
73599;SDS011;61877;48.246;9.220;2023-06-19T07:58:33;9.90;;;6.03;;
73599;SDS011;61877;48.246;9.220;2023-06-19T08:00:59;11.50;;;6.40;;
73599;SDS011;61877;48.246;9.220;2023-06-19T08:03:24;9.90;;;5.70;;
73599;SDS011;61877;48.246;9.220;2023-06-19T08:05:50;10.85;;;6.60;;
73599;SDS011;61877;48.246;9.220;2023-06-19T08:08:16;11.33;;;6.30;;
73599;SDS011;61877;48.246;9.220;2023-06-19T08:10:44;10.77;;;6.40;;
73599;SDS011;61877;48.246;9.220;2023-06-19T08:13:09;11.23;;;6.63;;
73599;SDS011;61877;48.246;9.220;2023-06-19T08:15:35;10.43;;;6.40;;
73599;SDS011;61877;48.246;9.220;2023-06-19T08:18:00;10.07;;;6.03;;
73599;SDS011;61877;48.246;9.220;2023-06-19T08:20:27;9.30;;;5.83;;
73599;SDS011;61877;48.246;9.220;2023-06-19T08:22:52;10.52;;;5.75;;
73599;SDS011;61877;48.246;9.220;2023-06-19T08:25:19;9.70;;;6.20;;
73599;SDS011;61877;48.246;9.220;2023-06-19T08:27:45;10.30;;;6.07;;
73599;SDS011;61877;48.246;9.220;2023-06-19T08:30:10;9.57;;;5.60;;
73599;SDS011;61877;48.246;9.220;2023-06-19T08:32:36;11.93;;;5.93;;
73599;SDS011;61877;48.246;9.220;2023-06-19T08:35:01;10.73;;;5.60;;
73599;SDS011;61877;48.246;9.220;2023-06-19T08:37:27;8.23;;;4.70;;
73599;SDS011;61877;48.246;9.220;2023-06-19T08:39:53;9.00;;;5.30;;
73599;SDS011;61877;48.246;9.220;2023-06-19T08:42:19;8.67;;;5.30;;
73599;SDS011;61877;48.246;9.220;2023-06-19T08:44:45;8.73;;;4.90;;
73599;SDS011;61877;48.246;9.220;2023-06-19T08:47:10;9.63;;;5.30;;
73599;SDS011;61877;48.246;9.220;2023-06-19T08:49:36;8.60;;;4.90;;
73599;SDS011;61877;48.246;9.220;2023-06-19T08:52:02;8.47;;;5.07;;
73599;SDS011;61877;48.246;9.220;2023-06-19T08:54:28;8.98;;;4.78;;
73599;SDS011;61877;48.246;9.220;2023-06-19T08:56:53;9.40;;;4.73;;
73599;SDS011;61877;48.246;9.220;2023-06-19T08:59:20;8.95;;;4.90;;
73599;SDS011;61877;48.246;9.220;2023-06-19T09:01:46;8.57;;;4.80;;
73599;SDS011;61877;48.246;9.220;2023-06-19T09:04:15;8.67;;;4.60;;
73599;SDS011;61877;48.246;9.220;2023-06-19T09:06:47;7.90;;;4.70;;
73599;SDS011;61877;48.246;9.220;2023-06-19T09:09:14;8.70;;;4.70;;
73599;SDS011;61877;48.246;9.220;2023-06-19T09:11:39;8.50;;;5.03;;
73599;SDS011;61877;48.246;9.220;2023-06-19T09:14:05;8.77;;;5.45;;
73599;SDS011;61877;48.246;9.220;2023-06-19T09:16:37;10.83;;;5.47;;
73599;SDS011;61877;48.246;9.220;2023-06-19T09:19:04;8.93;;;5.50;;
73599;SDS011;61877;48.246;9.220;2023-06-19T09:21:29;8.83;;;5.40;;
73599;SDS011;61877;48.246;9.220;2023-06-19T09:23:55;9.05;;;5.65;;
73599;SDS011;61877;48.246;9.220;2023-06-19T09:26:28;8.60;;;4.90;;
73599;SDS011;61877;48.246;9.220;2023-06-19T09:28:53;8.95;;;4.95;;
73599;SDS011;61877;48.246;9.220;2023-06-19T09:31:19;9.33;;;4.80;;
73599;SDS011;61877;48.246;9.220;2023-06-19T09:33:46;8.65;;;5.00;;
73599;SDS011;61877;48.246;9.220;2023-06-19T09:36:11;10.53;;;5.53;;
73599;SDS011;61877;48.246;9.220;2023-06-19T09:38:37;9.60;;;5.30;;
73599;SDS011;61877;48.246;9.220;2023-06-19T09:41:04;10.35;;;4.82;;
73599;SDS011;61877;48.246;9.220;2023-06-19T09:43:33;9.70;;;5.70;;
73599;SDS011;61877;48.246;9.220;2023-06-19T09:45:59;10.07;;;5.22;;
73599;SDS011;61877;48.246;9.220;2023-06-19T09:48:27;8.57;;;5.00;;
73599;SDS011;61877;48.246;9.220;2023-06-19T09:50:59;8.73;;;5.28;;
73599;SDS011;61877;48.246;9.220;2023-06-19T09:53:27;8.73;;;5.30;;
73599;SDS011;61877;48.246;9.220;2023-06-19T09:55:59;10.27;;;5.50;;
73599;SDS011;61877;48.246;9.220;2023-06-19T09:58:24;11.43;;;5.78;;
73599;SDS011;61877;48.246;9.220;2023-06-19T10:00:51;10.30;;;6.00;;
73599;SDS011;61877;48.246;9.220;2023-06-19T10:03:17;10.50;;;5.78;;
73599;SDS011;61877;48.246;9.220;2023-06-19T10:05:42;10.43;;;5.82;;
73599;SDS011;61877;48.246;9.220;2023-06-19T10:08:10;10.20;;;5.40;;
73599;SDS011;61877;48.246;9.220;2023-06-19T10:10:46;9.20;;;5.68;;
73599;SDS011;61877;48.246;9.220;2023-06-19T10:13:12;10.82;;;5.95;;
73599;SDS011;61877;48.246;9.220;2023-06-19T10:15:40;11.95;;;5.78;;
73599;SDS011;61877;48.246;9.220;2023-06-19T10:18:06;9.30;;;5.33;;
73599;SDS011;61877;48.246;9.220;2023-06-19T10:20:32;9.45;;;5.53;;
73599;SDS011;61877;48.246;9.220;2023-06-19T10:23:01;9.77;;;5.82;;
73599;SDS011;61877;48.246;9.220;2023-06-19T10:25:33;8.60;;;5.20;;
73599;SDS011;61877;48.246;9.220;2023-06-19T10:28:00;8.63;;;5.40;;
73599;SDS011;61877;48.246;9.220;2023-06-19T10:30:26;9.18;;;5.65;;
73599;SDS011;61877;48.246;9.220;2023-06-19T10:32:52;9.50;;;5.40;;
73599;SDS011;61877;48.246;9.220;2023-06-19T10:35:18;8.40;;;5.70;;
73599;SDS011;61877;48.246;9.220;2023-06-19T10:37:43;8.55;;;5.68;;
73599;SDS011;61877;48.246;9.220;2023-06-19T10:40:09;9.07;;;6.53;;
73599;SDS011;61877;48.246;9.220;2023-06-19T10:42:40;11.27;;;6.25;;
73599;SDS011;61877;48.246;9.220;2023-06-19T10:45:06;10.60;;;6.40;;
73599;SDS011;61877;48.246;9.220;2023-06-19T10:47:33;9.60;;;6.60;;
73599;SDS011;61877;48.246;9.220;2023-06-19T10:49:59;9.80;;;5.90;;
73599;SDS011;61877;48.246;9.220;2023-06-19T10:52:25;10.47;;;6.67;;
73599;SDS011;61877;48.246;9.220;2023-06-19T10:54:53;10.20;;;6.37;;
73599;SDS011;61877;48.246;9.220;2023-06-19T10:57:18;9.57;;;6.85;;
73599;SDS011;61877;48.246;9.220;2023-06-19T10:59:54;10.52;;;6.90;;
73599;SDS011;61877;48.246;9.220;2023-06-19T11:02:20;12.13;;;7.30;;
73599;SDS011;61877;48.246;9.220;2023-06-19T11:04:46;10.23;;;6.33;;
73599;SDS011;61877;48.246;9.220;2023-06-19T11:07:12;10.90;;;6.43;;
73599;SDS011;61877;48.246;9.220;2023-06-19T11:09:38;9.60;;;5.97;;
73599;SDS011;61877;48.246;9.220;2023-06-19T11:12:03;9.60;;;6.27;;
73599;SDS011;61877;48.246;9.220;2023-06-19T11:14:30;9.80;;;6.20;;
73599;SDS011;61877;48.246;9.220;2023-06-19T11:16:57;9.55;;;6.53;;
73599;SDS011;61877;48.246;9.220;2023-06-19T11:19:29;12.50;;;6.23;;
73599;SDS011;61877;48.246;9.220;2023-06-19T11:21:56;9.35;;;6.22;;
73599;SDS011;61877;48.246;9.220;2023-06-19T11:24:22;10.52;;;6.68;;
73599;SDS011;61877;48.246;9.220;2023-06-19T11:26:49;9.25;;;6.78;;
73599;SDS011;61877;48.246;9.220;2023-06-19T11:29:15;9.20;;;6.37;;
73599;SDS011;61877;48.246;9.220;2023-06-19T11:31:42;9.35;;;6.30;;
73599;SDS011;61877;48.246;9.220;2023-06-19T11:34:09;9.68;;;6.20;;
73599;SDS011;61877;48.246;9.220;2023-06-19T11:36:36;9.50;;;6.88;;
73599;SDS011;61877;48.246;9.220;2023-06-19T11:39:02;8.87;;;6.23;;
73599;SDS011;61877;48.246;9.220;2023-06-19T11:41:28;9.40;;;6.72;;
73599;SDS011;61877;48.246;9.220;2023-06-19T11:44:00;8.83;;;6.33;;
73599;SDS011;61877;48.246;9.220;2023-06-19T11:46:29;9.55;;;5.95;;
73599;SDS011;61877;48.246;9.220;2023-06-19T11:48:55;8.57;;;5.90;;
73599;SDS011;61877;48.246;9.220;2023-06-19T11:51:34;9.32;;;5.53;;
73599;SDS011;61877;48.246;9.220;2023-06-19T11:53:59;8.95;;;6.45;;
73599;SDS011;61877;48.246;9.220;2023-06-19T11:56:25;8.83;;;6.00;;
73599;SDS011;61877;48.246;9.220;2023-06-19T11:58:50;8.83;;;5.60;;
73599;SDS011;61877;48.246;9.220;2023-06-19T12:01:19;8.98;;;5.95;;
73599;SDS011;61877;48.246;9.220;2023-06-19T12:03:44;8.67;;;6.20;;
73599;SDS011;61877;48.246;9.220;2023-06-19T12:06:12;9.30;;;6.07;;
73599;SDS011;61877;48.246;9.220;2023-06-19T12:08:39;10.23;;;5.82;;
73599;SDS011;61877;48.246;9.220;2023-06-19T12:11:05;9.00;;;5.97;;
73599;SDS011;61877;48.246;9.220;2023-06-19T12:13:30;8.70;;;6.13;;
73599;SDS011;61877;48.246;9.220;2023-06-19T12:15:56;9.87;;;6.03;;
73599;SDS011;61877;48.246;9.220;2023-06-19T12:18:21;8.63;;;5.93;;
73599;SDS011;61877;48.246;9.220;2023-06-19T12:20:47;9.30;;;6.13;;
73599;SDS011;61877;48.246;9.220;2023-06-19T12:23:12;9.52;;;5.80;;
73599;SDS011;61877;48.246;9.220;2023-06-19T12:25:39;9.30;;;6.50;;
73599;SDS011;61877;48.246;9.220;2023-06-19T12:28:05;9.50;;;5.90;;
73599;SDS011;61877;48.246;9.220;2023-06-19T12:30:30;8.80;;;6.30;;
73599;SDS011;61877;48.246;9.220;2023-06-19T12:32:56;8.45;;;5.80;;
73599;SDS011;61877;48.246;9.220;2023-06-19T12:35:21;8.47;;;5.90;;
73599;SDS011;61877;48.246;9.220;2023-06-19T12:37:47;8.30;;;5.70;;
73599;SDS011;61877;48.246;9.220;2023-06-19T12:40:13;10.13;;;5.77;;
73599;SDS011;61877;48.246;9.220;2023-06-19T12:42:41;8.40;;;5.75;;
73599;SDS011;61877;48.246;9.220;2023-06-19T12:45:08;9.68;;;5.70;;
73599;SDS011;61877;48.246;9.220;2023-06-19T12:47:34;8.85;;;5.45;;
73599;SDS011;61877;48.246;9.220;2023-06-19T12:50:00;8.40;;;5.87;;
73599;SDS011;61877;48.246;9.220;2023-06-19T12:52:26;8.40;;;5.80;;
73599;SDS011;61877;48.246;9.220;2023-06-19T12:54:51;9.07;;;6.00;;
73599;SDS011;61877;48.246;9.220;2023-06-19T12:57:20;9.30;;;5.63;;
73599;SDS011;61877;48.246;9.220;2023-06-19T12:59:47;8.53;;;5.73;;
73599;SDS011;61877;48.246;9.220;2023-06-19T13:02:12;8.63;;;5.38;;
73599;SDS011;61877;48.246;9.220;2023-06-19T13:04:43;8.40;;;5.60;;
73599;SDS011;61877;48.246;9.220;2023-06-19T13:07:15;8.87;;;5.50;;
73599;SDS011;61877;48.246;9.220;2023-06-19T13:09:40;8.80;;;5.40;;
73599;SDS011;61877;48.246;9.220;2023-06-19T13:12:06;8.83;;;6.00;;
73599;SDS011;61877;48.246;9.220;2023-06-19T13:14:32;9.60;;;5.90;;
73599;SDS011;61877;48.246;9.220;2023-06-19T13:17:00;9.30;;;5.45;;
73599;SDS011;61877;48.246;9.220;2023-06-19T13:19:25;8.30;;;5.67;;
73599;SDS011;61877;48.246;9.220;2023-06-19T13:21:51;9.27;;;5.72;;
73599;SDS011;61877;48.246;9.220;2023-06-19T13:24:16;8.93;;;5.70;;
73599;SDS011;61877;48.246;9.220;2023-06-19T13:26:45;8.80;;;5.70;;
73599;SDS011;61877;48.246;9.220;2023-06-19T13:29:11;9.43;;;5.90;;
73599;SDS011;61877;48.246;9.220;2023-06-19T13:31:39;8.10;;;5.73;;
73599;SDS011;61877;48.246;9.220;2023-06-19T13:34:09;8.50;;;6.05;;
73599;SDS011;61877;48.246;9.220;2023-06-19T13:36:37;9.00;;;6.10;;
73599;SDS011;61877;48.246;9.220;2023-06-19T13:39:03;9.02;;;5.68;;
73599;SDS011;61877;48.246;9.220;2023-06-19T13:41:29;8.90;;;6.22;;
73599;SDS011;61877;48.246;9.220;2023-06-19T13:44:09;10.67;;;6.37;;
73599;SDS011;61877;48.246;9.220;2023-06-19T13:46:35;9.88;;;6.05;;
73599;SDS011;61877;48.246;9.220;2023-06-19T13:49:02;8.40;;;5.67;;
73599;SDS011;61877;48.246;9.220;2023-06-19T13:51:28;12.32;;;6.32;;
73599;SDS011;61877;48.246;9.220;2023-06-19T13:53:54;12.32;;;5.90;;
73599;SDS011;61877;48.246;9.220;2023-06-19T13:56:20;8.83;;;5.90;;
73599;SDS011;61877;48.246;9.220;2023-06-19T13:58:53;10.03;;;5.80;;
73599;SDS011;61877;48.246;9.220;2023-06-19T14:01:26;8.70;;;5.88;;
73599;SDS011;61877;48.246;9.220;2023-06-19T14:03:51;8.95;;;5.70;;
73599;SDS011;61877;48.246;9.220;2023-06-19T14:06:17;8.93;;;5.83;;
73599;SDS011;61877;48.246;9.220;2023-06-19T14:08:45;13.75;;;6.22;;
73599;SDS011;61877;48.246;9.220;2023-06-19T14:11:10;11.23;;;6.20;;
73599;SDS011;61877;48.246;9.220;2023-06-19T14:13:38;10.95;;;6.50;;
73599;SDS011;61877;48.246;9.220;2023-06-19T14:16:04;8.47;;;6.03;;
73599;SDS011;61877;48.246;9.220;2023-06-19T14:18:31;9.40;;;6.03;;
73599;SDS011;61877;48.246;9.220;2023-06-19T14:20:56;9.27;;;6.43;;
73599;SDS011;61877;48.246;9.220;2023-06-19T14:23:24;23.17;;;7.00;;
73599;SDS011;61877;48.246;9.220;2023-06-19T14:25:50;9.75;;;6.30;;
73599;SDS011;61877;48.246;9.220;2023-06-19T14:28:16;10.43;;;6.55;;
73599;SDS011;61877;48.246;9.220;2023-06-19T14:30:41;9.10;;;6.50;;
73599;SDS011;61877;48.246;9.220;2023-06-19T14:33:07;9.30;;;6.30;;
73599;SDS011;61877;48.246;9.220;2023-06-19T14:35:35;9.77;;;6.50;;
73599;SDS011;61877;48.246;9.220;2023-06-19T14:38:01;9.27;;;6.25;;